Time;durP1;ratioP1;P1;durP2;ratioP2;P2;SDS_P1;SDS_P2;PMS_P1;PMS_P2;Temp;Humidity;BMP_temperature;BMP_pressure;BME280_temperature;BME280_humidity;BME280_pressure;Samples;Min_cycle;Max_cycle;Signal;HPM_P1;HPM_P2
2021/03/09 00:00:10;;;;;;;96.50;44.45;;;5.40;99.90;;;;;;5016772;28;20196;-74
2021/03/09 00:02:36;;;;;;;98.18;44.25;;;5.40;99.90;;;;;;5051405;28;20601;-74
2021/03/09 00:05:06;;;;;;;86.55;41.10;;;5.40;99.90;;;;;;5049629;28;20204;-73
2021/03/09 00:07:32;;;;;;;96.03;43.72;;;5.40;99.90;;;;;;5048866;28;20184;-74
2021/03/09 00:09:58;;;;;;;98.60;44.92;;;5.40;99.90;;;;;;5050704;28;20188;-74
2021/03/09 00:12:28;;;;;;;93.15;41.17;;;5.50;99.90;;;;;;5017256;28;20242;-74
2021/03/09 00:14:57;;;;;;;97.20;43.03;;;5.40;99.90;;;;;;5029463;28;20193;-74
2021/03/09 00:17:23;;;;;;;94.72;41.70;;;5.40;99.90;;;;;;5051059;28;20191;-74
2021/03/09 00:19:49;;;;;;;91.90;42.65;;;5.40;99.90;;;;;;5049146;28;20198;-74
2021/03/09 00:22:15;;;;;;;102.22;43.13;;;5.40;99.90;;;;;;5015971;28;20216;-74
2021/03/09 00:24:43;;;;;;;101.60;42.90;;;5.40;99.90;;;;;;5047907;28;20269;-74
2021/03/09 00:27:12;;;;;;;106.25;45.35;;;5.40;99.90;;;;;;5033198;28;20238;-74
2021/03/09 00:29:38;;;;;;;96.07;44.83;;;5.40;99.90;;;;;;5049127;28;20248;-74
2021/03/09 00:32:09;;;;;;;99.80;44.38;;;5.40;99.90;;;;;;5028801;28;20452;-73
2021/03/09 00:34:40;;;;;;;98.95;45.05;;;5.40;99.90;;;;;;5050302;28;20267;-74
2021/03/09 00:37:06;;;;;;;97.72;45.92;;;5.50;99.90;;;;;;5050570;28;20187;-74
2021/03/09 00:39:34;;;;;;;107.47;46.15;;;5.50;99.90;;;;;;5049220;28;20566;-74
2021/03/09 00:42:00;;;;;;;92.55;44.50;;;5.40;99.90;;;;;;5031443;28;20215;-74
2021/03/09 00:44:29;;;;;;;99.63;44.08;;;5.40;99.90;;;;;;5049386;28;20196;-73
2021/03/09 00:46:56;;;;;;;102.78;44.92;;;5.40;99.90;;;;;;5040931;28;20208;-74
2021/03/09 00:49:22;;;;;;;107.72;46.10;;;5.40;99.90;;;;;;5047803;28;20184;-74
2021/03/09 00:51:48;;;;;;;106.80;45.75;;;5.40;99.90;;;;;;5049799;28;20299;-74
2021/03/09 00:54:14;;;;;;;99.50;44.08;;;5.40;99.90;;;;;;5022992;28;20219;-74
2021/03/09 00:56:40;;;;;;;96.27;42.43;;;5.40;99.90;;;;;;5032403;28;20244;-74
2021/03/09 00:59:06;;;;;;;100.33;43.17;;;5.60;99.90;;;;;;5048284;28;20517;-74
2021/03/09 01:01:32;;;;;;;97.73;41.37;;;5.40;99.90;;;;;;5015686;28;20461;-74
2021/03/09 01:03:58;;;;;;;106.35;45.78;;;5.40;99.90;;;;;;5048835;28;20832;-74
2021/03/09 01:06:24;;;;;;;89.20;42.28;;;5.40;99.90;;;;;;5048492;28;20238;-74
2021/03/09 01:08:50;;;;;;;88.45;43.03;;;5.40;99.90;;;;;;5031107;28;20188;-74
2021/03/09 01:11:17;;;;;;;93.30;44.05;;;5.50;99.90;;;;;;5048845;28;20277;-74
2021/03/09 01:13:45;;;;;;;90.85;40.80;;;5.50;99.90;;;;;;5049830;28;20196;-73
2021/03/09 01:16:11;;;;;;;86.88;42.63;;;5.50;99.90;;;;;;5050344;28;20666;-74
2021/03/09 01:18:38;;;;;;;72.13;38.75;;;5.50;99.90;;;;;;5014755;28;20243;-74
2021/03/09 01:21:04;;;;;;;75.07;39.05;;;5.50;99.90;;;;;;5050154;28;20215;-74
2021/03/09 01:23:30;;;;;;;73.07;35.22;;;5.50;99.90;;;;;;5049728;28;20686;-74
2021/03/09 01:25:56;;;;;;;77.33;37.03;;;5.50;99.90;;;;;;5049301;28;20200;-74
2021/03/09 01:28:24;;;;;;;68.97;36.10;;;5.60;99.90;;;;;;5047652;28;20438;-74
2021/03/09 01:30:50;;;;;;;69.82;34.63;;;5.50;99.90;;;;;;5050634;28;20212;-73
2021/03/09 01:33:16;;;;;;;69.65;33.28;;;5.50;99.90;;;;;;5016244;28;20180;-74
2021/03/09 01:35:42;;;;;;;64.37;32.90;;;5.40;99.90;;;;;;5032370;28;20189;-74
2021/03/09 01:38:08;;;;;;;76.25;34.58;;;5.50;99.90;;;;;;5032696;28;20450;-74
2021/03/09 01:40:34;;;;;;;59.57;32.67;;;5.50;99.90;;;;;;5050231;28;20208;-74
2021/03/09 01:43:01;;;;;;;61.90;34.47;;;5.40;99.90;;;;;;5027522;28;20435;-74
2021/03/09 01:45:27;;;;;;;60.20;31.30;;;5.40;99.90;;;;;;5020955;28;20826;-74
2021/03/09 01:48:00;;;;;;;64.38;33.28;;;5.40;99.90;;;;;;5048986;28;20283;-74
2021/03/09 01:50:33;;;;;;;63.67;33.60;;;5.40;99.90;;;;;;5028517;28;20248;-74
2021/03/09 01:53:05;;;;;;;62.50;32.72;;;5.40;99.90;;;;;;5047675;28;20192;-73
2021/03/09 01:55:32;;;;;;;67.20;31.23;;;5.40;99.90;;;;;;5042400;28;20229;-74
2021/03/09 01:57:59;;;;;;;59.88;28.65;;;5.40;99.90;;;;;;5053885;28;20222;-74
2021/03/09 02:00:25;;;;;;;62.58;32.38;;;5.40;99.90;;;;;;5052345;28;20298;-74
2021/03/09 02:02:51;;;;;;;66.85;32.75;;;5.40;99.90;;;;;;5034627;28;20216;-74
2021/03/09 02:05:17;;;;;;;58.25;32.75;;;5.40;99.90;;;;;;5052417;28;20604;-74
2021/03/09 02:07:43;;;;;;;58.83;32.08;;;5.40;99.90;;;;;;5036232;28;20196;-74
2021/03/09 02:10:12;;;;;;;54.08;31.10;;;5.40;99.90;;;;;;5053606;28;20196;-74
2021/03/09 02:13:00;;;;;;;56.60;29.70;;;5.40;99.90;;;;;;5052534;28;20681;-74
2021/03/09 02:15:57;;;;;;;62.67;31.83;;;5.40;99.90;;;;;;5052365;28;20196;-74
2021/03/09 02:18:51;;;;;;;58.17;30.90;;;5.40;99.90;;;;;;5031228;28;20204;-74
2021/03/09 02:21:36;;;;;;;57.97;29.65;;;5.40;99.90;;;;;;5051890;28;20219;-74
2021/03/09 02:24:24;;;;;;;56.13;29.65;;;5.40;99.90;;;;;;5042753;28;20232;-74
2021/03/09 02:27:29;;;;;;;55.22;29.48;;;5.40;99.90;;;;;;5018671;28;20716;-74
2021/03/09 02:30:21;;;;;;;61.90;31.83;;;5.30;99.90;;;;;;4988292;28;20238;-74
2021/03/09 02:33:02;;;;;;;60.08;30.75;;;5.30;99.90;;;;;;5053457;28;20685;-74
2021/03/09 02:35:29;;;;;;;50.47;28.80;;;5.30;99.90;;;;;;5053628;28;20261;-74
2021/03/09 02:38:00;;;;;;;52.95;29.77;;;5.30;99.90;;;;;;5026668;28;20227;-74
2021/03/09 02:40:31;;;;;;;56.50;28.83;;;5.40;99.90;;;;;;5050909;28;20231;-74
2021/03/09 02:43:02;;;;;;;54.00;28.27;;;5.40;99.90;;;;;;5028509;28;20195;-74
2021/03/09 02:45:31;;;;;;;56.83;30.35;;;5.40;99.90;;;;;;5051308;28;20208;-74
2021/03/09 02:47:59;;;;;;;59.70;30.25;;;5.30;99.90;;;;;;5035226;28;20563;-74
2021/03/09 02:50:27;;;;;;;60.85;29.70;;;5.30;99.90;;;;;;5017500;28;20215;-74
2021/03/09 02:53:02;;;;;;;57.60;29.00;;;5.30;99.90;;;;;;5035223;28;20246;-74
2021/03/09 02:55:30;;;;;;;55.00;28.17;;;5.30;99.90;;;;;;5052614;28;20196;-74
2021/03/09 02:58:00;;;;;;;58.97;30.65;;;5.40;99.90;;;;;;5050762;28;20181;-74
2021/03/09 03:00:27;;;;;;;56.60;29.75;;;5.30;99.90;;;;;;5036087;28;20261;-74
2021/03/09 03:02:56;;;;;;;57.35;28.77;;;5.30;99.90;;;;;;5018170;28;20192;-74
2021/03/09 03:05:24;;;;;;;68.35;32.22;;;5.30;99.90;;;;;;5032886;28;20213;-74
2021/03/09 03:07:52;;;;;;;51.67;29.05;;;5.30;99.90;;;;;;5050534;28;20287;-74
2021/03/09 03:10:19;;;;;;;56.65;29.33;;;5.20;99.90;;;;;;5052282;28;20188;-74
2021/03/09 03:12:50;;;;;;;56.47;30.70;;;5.20;99.90;;;;;;5051867;28;20227;-74
2021/03/09 03:15:18;;;;;;;51.72;27.52;;;5.20;99.90;;;;;;5053161;28;20192;-74
2021/03/09 03:17:47;;;;;;;59.00;30.05;;;5.20;99.90;;;;;;5052754;28;20192;-74
2021/03/09 03:20:18;;;;;;;53.03;30.13;;;5.20;99.90;;;;;;5051021;28;20299;-74
2021/03/09 03:22:47;;;;;;;58.75;30.75;;;5.20;99.90;;;;;;5032534;28;20723;-74
2021/03/09 03:25:14;;;;;;;57.60;29.20;;;5.20;99.90;;;;;;5050783;28;20246;-73
2021/03/09 03:27:42;;;;;;;56.33;31.77;;;5.10;99.90;;;;;;5034253;28;20647;-74
2021/03/09 03:30:13;;;;;;;67.47;32.17;;;5.10;99.90;;;;;;5033546;28;20649;-73
2021/03/09 03:32:43;;;;;;;56.17;31.48;;;5.00;99.90;;;;;;5052284;28;20207;-74
2021/03/09 03:35:12;;;;;;;56.95;31.15;;;5.00;99.90;;;;;;5037529;28;20187;-74
2021/03/09 03:37:42;;;;;;;63.00;32.65;;;5.00;99.90;;;;;;5051989;28;20188;-73
2021/03/09 03:40:18;;;;;;;65.60;33.30;;;5.00;99.90;;;;;;5034233;28;20192;-74
2021/03/09 03:42:47;;;;;;;65.05;34.65;;;5.00;99.90;;;;;;5050455;28;20208;-74
2021/03/09 03:45:15;;;;;;;64.28;33.58;;;5.00;99.90;;;;;;5033581;28;20622;-72
2021/03/09 03:47:45;;;;;;;71.43;33.08;;;4.90;99.90;;;;;;5026146;28;20199;-74
2021/03/09 03:50:14;;;;;;;64.38;33.53;;;4.90;99.90;;;;;;5051963;28;20188;-74
2021/03/09 03:52:46;;;;;;;64.95;32.45;;;5.00;99.90;;;;;;5050545;28;20211;-74
2021/03/09 03:55:33;;;;;;;64.65;32.70;;;5.00;99.90;;;;;;5051549;28;20187;-74
2021/03/09 03:58:11;;;;;;;67.95;33.28;;;4.90;99.90;;;;;;5051873;28;20231;-74
2021/03/09 04:00:40;;;;;;;64.93;33.85;;;4.80;99.90;;;;;;5034029;28;20191;-74
2021/03/09 04:03:11;;;;;;;64.72;33.72;;;5.00;99.90;;;;;;5034002;28;20192;-74
2021/03/09 04:05:40;;;;;;;77.32;36.53;;;4.90;99.90;;;;;;5051913;28;20609;-74
2021/03/09 04:08:09;;;;;;;68.47;33.63;;;4.90;99.90;;;;;;5033050;28;20238;-74
2021/03/09 04:10:36;;;;;;;73.80;37.47;;;4.90;99.90;;;;;;5050985;28;20187;-74
2021/03/09 04:13:06;;;;;;;87.20;36.88;;;4.90;99.90;;;;;;5050109;28;20187;-73
2021/03/09 04:15:36;;;;;;;78.63;37.10;;;4.90;99.90;;;;;;5050159;28;20246;-74
2021/03/09 04:18:05;;;;;;;63.80;33.53;;;4.90;99.90;;;;;;5032791;28;20188;-74
2021/03/09 04:20:32;;;;;;;78.35;38.72;;;4.80;99.90;;;;;;5049355;28;20200;-73
2021/03/09 04:22:59;;;;;;;73.25;37.78;;;4.70;99.90;;;;;;5029765;28;20189;-73
2021/03/09 04:25:27;;;;;;;83.88;40.03;;;4.70;99.90;;;;;;5049624;28;21031;-74
2021/03/09 04:27:55;;;;;;;75.85;39.25;;;4.80;99.90;;;;;;5027765;28;20228;-73
2021/03/09 04:30:25;;;;;;;77.60;40.00;;;4.60;99.90;;;;;;5014543;28;20199;-73
2021/03/09 04:32:52;;;;;;;77.97;40.47;;;4.70;99.90;;;;;;5023497;28;20208;-74
2021/03/09 04:35:18;;;;;;;84.53;43.97;;;4.60;99.90;;;;;;5049882;28;20241;-74
2021/03/09 04:37:45;;;;;;;81.18;39.70;;;4.60;99.90;;;;;;5049808;28;20286;-74
2021/03/09 04:40:12;;;;;;;91.20;39.58;;;4.60;99.90;;;;;;5049583;28;20199;-73
2021/03/09 04:42:39;;;;;;;82.43;41.88;;;4.50;99.90;;;;;;5033379;28;20654;-73
2021/03/09 04:45:06;;;;;;;79.05;39.88;;;4.60;99.90;;;;;;5049134;28;20191;-73
2021/03/09 04:47:32;;;;;;;79.03;38.88;;;4.70;99.90;;;;;;5032647;28;20711;-73
2021/03/09 04:50:00;;;;;;;78.70;42.25;;;4.60;99.90;;;;;;5050300;28;20654;-73
2021/03/09 04:52:26;;;;;;;81.50;41.63;;;4.60;99.90;;;;;;5032849;28;20661;-74
2021/03/09 04:54:56;;;;;;;79.82;41.17;;;4.50;99.90;;;;;;5050934;28;20668;-73
2021/03/09 04:57:36;;;;;;;78.63;41.55;;;4.50;99.90;;;;;;5050634;28;20270;-73
2021/03/09 05:00:06;;;;;;;85.95;40.90;;;4.50;99.90;;;;;;5043760;28;20195;-74
2021/03/09 05:02:32;;;;;;;100.30;43.15;;;4.40;99.90;;;;;;5050528;28;20211;-73
2021/03/09 05:04:58;;;;;;;94.07;44.83;;;4.50;99.90;;;;;;5032244;28;20219;-73
2021/03/09 05:07:24;;;;;;;91.72;42.25;;;4.30;99.90;;;;;;5031761;28;20203;-74
2021/03/09 05:09:51;;;;;;;81.68;43.13;;;4.30;99.90;;;;;;5050434;28;20183;-74
2021/03/09 05:12:17;;;;;;;92.65;43.80;;;4.40;99.90;;;;;;5050655;28;20246;-73
2021/03/09 05:14:44;;;;;;;84.97;41.47;;;4.40;99.90;;;;;;5049464;28;20192;-72
2021/03/09 05:17:12;;;;;;;87.20;43.13;;;4.40;99.90;;;;;;5041069;28;20192;-73
2021/03/09 05:19:38;;;;;;;90.18;42.60;;;4.30;99.90;;;;;;5050775;28;20634;-73
2021/03/09 05:22:04;;;;;;;87.70;44.10;;;4.40;99.90;;;;;;5032829;28;20306;-73
2021/03/09 05:24:30;;;;;;;90.63;43.33;;;4.50;99.90;;;;;;5050032;28;20789;-73
2021/03/09 05:26:58;;;;;;;91.80;43.30;;;4.30;99.90;;;;;;5049374;28;20228;-73
2021/03/09 05:29:24;;;;;;;88.82;45.63;;;4.40;99.90;;;;;;5049010;28;20196;-74
2021/03/09 05:31:50;;;;;;;95.68;45.60;;;4.40;99.90;;;;;;5036548;28;20226;-73
2021/03/09 05:34:18;;;;;;;94.57;45.88;;;4.40;99.90;;;;;;5033868;28;20272;-73
2021/03/09 05:36:47;;;;;;;98.47;46.95;;;4.30;99.90;;;;;;5054164;28;20277;-73
2021/03/09 05:39:15;;;;;;;84.65;43.08;;;4.40;99.90;;;;;;5036314;28;20250;-73
2021/03/09 05:41:41;;;;;;;91.80;43.17;;;4.50;99.90;;;;;;5053546;28;20212;-73
2021/03/09 05:44:08;;;;;;;87.35;42.75;;;4.40;99.90;;;;;;5053260;28;20200;-73
2021/03/09 05:46:37;;;;;;;81.47;40.72;;;4.30;99.90;;;;;;5036518;28;20227;-74
2021/03/09 05:49:05;;;;;;;83.95;41.17;;;4.30;99.90;;;;;;5054154;28;20196;-73
2021/03/09 05:51:37;;;;;;;81.57;38.85;;;4.20;99.90;;;;;;5019152;28;20219;-72
2021/03/09 05:54:06;;;;;;;76.32;40.22;;;4.40;99.90;;;;;;5028501;28;20196;-73
2021/03/09 05:56:32;;;;;;;81.07;40.10;;;4.40;99.90;;;;;;5031687;28;20198;-73
2021/03/09 05:58:58;;;;;;;86.78;42.55;;;4.40;99.90;;;;;;5050733;28;20191;-74
2021/03/09 06:01:24;;;;;;;78.45;39.10;;;4.40;99.90;;;;;;5035472;28;20204;-74
2021/03/09 06:03:53;;;;;;;77.80;37.95;;;4.40;99.90;;;;;;5053150;28;20211;-74
2021/03/09 06:06:20;;;;;;;81.43;40.27;;;4.40;99.90;;;;;;5038492;28;20211;-74
2021/03/09 06:08:48;;;;;;;81.68;40.45;;;4.40;99.90;;;;;;5032797;28;20862;-74
2021/03/09 06:11:19;;;;;;;79.40;37.90;;;4.40;99.90;;;;;;5054830;28;20279;-75
2021/03/09 06:13:48;;;;;;;70.18;36.67;;;4.30;99.90;;;;;;5052771;28;20172;-74
2021/03/09 06:16:15;;;;;;;75.95;36.78;;;4.40;99.90;;;;;;5054245;28;20661;-75
2021/03/09 06:18:58;;;;;;;71.25;36.70;;;4.30;99.90;;;;;;5052807;28;20192;-76
2021/03/09 06:21:26;;;;;;;73.57;36.83;;;4.40;99.90;;;;;;5053029;28;20212;-75
2021/03/09 06:23:53;;;;;;;75.18;37.42;;;4.20;99.90;;;;;;5036805;28;20228;-75
2021/03/09 06:26:37;;;;;;;71.93;38.17;;;4.30;99.90;;;;;;5036753;28;20285;-76
2021/03/09 06:29:12;;;;;;;71.93;37.95;;;4.30;99.90;;;;;;5037305;28;20172;-74
2021/03/09 06:31:50;;;;;;;70.85;37.88;;;4.50;99.90;;;;;;5037026;28;20204;-74
2021/03/09 06:34:33;;;;;;;73.70;34.90;;;4.20;99.90;;;;;;5054836;28;20180;-74
2021/03/09 06:37:10;;;;;;;71.28;36.03;;;4.40;99.90;;;;;;5036681;28;20191;-73
2021/03/09 06:39:54;;;;;;;74.35;36.20;;;4.10;99.90;;;;;;5053427;28;20194;-74
2021/03/09 06:42:36;;;;;;;68.72;36.83;;;4.10;99.90;;;;;;5031649;28;20215;-74
2021/03/09 06:45:05;;;;;;;70.40;34.67;;;4.10;99.90;;;;;;5034246;28;20650;-73
2021/03/09 06:47:35;;;;;;;66.63;36.22;;;4.10;99.90;;;;;;5035119;28;20265;-74
2021/03/09 06:50:04;;;;;;;82.90;35.53;;;4.10;99.90;;;;;;5017323;28;20169;-74
2021/03/09 06:52:33;;;;;;;83.25;38.22;;;4.10;99.90;;;;;;5019328;28;20204;-74
2021/03/09 06:55:00;;;;;;;75.95;37.90;;;4.10;99.90;;;;;;5054560;28;20180;-73
2021/03/09 06:57:28;;;;;;;73.57;36.42;;;4.10;99.90;;;;;;5054379;28;20184;-74
2021/03/09 06:59:58;;;;;;;72.22;38.17;;;4.20;99.90;;;;;;5054492;28;20625;-74
2021/03/09 07:02:28;;;;;;;75.93;37.42;;;4.20;99.90;;;;;;5053932;28;20281;-74
2021/03/09 07:05:05;;;;;;;71.22;36.03;;;4.20;99.90;;;;;;5070370;22;20239;-76
2021/03/09 07:07:39;;;;;;;73.03;35.78;;;4.20;99.90;;;;;;5023738;28;20198;-76
2021/03/09 07:10:05;;;;;;;76.70;38.22;;;4.20;99.90;;;;;;5016872;28;20600;-76
2021/03/09 07:12:37;;;;;;;71.10;35.58;;;4.20;99.90;;;;;;5022058;28;20296;-73
2021/03/09 07:15:05;;;;;;;75.20;35.45;;;4.30;99.90;;;;;;5022966;28;20911;-76
2021/03/09 07:17:33;;;;;;;72.57;36.80;;;4.20;99.90;;;;;;4998727;28;20250;-75
2021/03/09 07:20:13;;;;;;;72.22;36.72;;;4.20;99.90;;;;;;5000778;28;20268;-75
2021/03/09 07:22:42;;;;;;;68.22;35.80;;;4.30;99.90;;;;;;5028601;28;20604;-76
2021/03/09 07:25:14;;;;;;;78.60;36.30;;;4.30;99.90;;;;;;4999504;28;20191;-76
2021/03/09 07:27:49;;;;;;;74.05;34.75;;;4.20;99.90;;;;;;5009260;28;20633;-75
2021/03/09 07:30:19;;;;;;;69.38;35.00;;;4.30;99.90;;;;;;5015666;28;20680;-74
2021/03/09 07:32:55;;;;;;;72.53;36.10;;;4.20;99.90;;;;;;5014858;28;20591;-75
2021/03/09 07:35:23;;;;;;;73.97;36.58;;;4.20;99.90;;;;;;4988917;28;20193;-76
2021/03/09 07:37:53;;;;;;;73.60;39.47;;;4.20;99.90;;;;;;5031859;28;20196;-75
2021/03/09 07:40:22;;;;;;;81.13;41.70;;;4.30;99.90;;;;;;5024980;28;20198;-75
2021/03/09 07:42:48;;;;;;;70.75;38.63;;;4.30;99.90;;;;;;5006382;28;20211;-77
2021/03/09 07:45:24;;;;;;;77.88;34.70;;;4.20;99.90;;;;;;5014447;28;20614;-75
2021/03/09 07:47:55;;;;;;;89.13;41.45;;;4.20;99.90;;;;;;5023506;28;20207;-75
2021/03/09 07:50:25;;;;;;;76.10;37.50;;;4.20;99.90;;;;;;5001145;28;20236;-75
2021/03/09 07:53:16;;;;;;;77.95;37.97;;;4.10;99.90;;;;;;4989503;28;20200;-75
2021/03/09 07:55:46;;;;;;;70.07;35.38;;;4.20;99.90;;;;;;5010468;28;20189;-76
2021/03/09 07:58:25;;;;;;;66.50;35.33;;;4.20;99.90;;;;;;5042370;28;20250;-76
2021/03/09 08:00:58;;;;;;;65.75;34.88;;;4.30;99.90;;;;;;5031729;28;20262;-76
2021/03/09 08:03:30;;;;;;;71.07;35.45;;;4.30;99.90;;;;;;5011936;28;20192;-76
2021/03/09 08:06:04;;;;;;;68.78;35.17;;;4.30;99.90;;;;;;5029851;28;20209;-75
2021/03/09 08:08:39;;;;;;;66.93;34.42;;;4.30;99.90;;;;;;5011171;28;20177;-74
2021/03/09 08:11:08;;;;;;;74.63;37.60;;;4.20;99.90;;;;;;5014975;28;20222;-73
2021/03/09 08:13:34;;;;;;;64.57;34.95;;;4.30;99.90;;;;;;5003058;28;20246;-75
2021/03/09 08:16:21;;;;;;;65.97;34.50;;;4.20;99.90;;;;;;5045867;28;20258;-73
2021/03/09 08:18:57;;;;;;;67.15;36.42;;;4.40;99.90;;;;;;5015608;28;20283;-76
2021/03/09 08:21:39;;;;;;;71.85;35.85;;;4.20;99.90;;;;;;4987814;28;20281;-74
2021/03/09 08:24:06;;;;;;;63.42;33.45;;;4.10;99.90;;;;;;5031266;28;20269;-76
2021/03/09 08:26:32;;;;;;;64.90;36.10;;;4.30;99.90;;;;;;5022363;28;20213;-76
2021/03/09 08:29:01;;;;;;;65.28;36.38;;;4.40;99.90;;;;;;4996853;28;20184;-76
2021/03/09 08:31:28;;;;;;;74.43;36.60;;;4.60;99.90;;;;;;5006131;28;20222;-75
2021/03/09 08:34:20;;;;;;;63.10;31.27;;;4.50;99.90;;;;;;5001166;28;20593;-76
2021/03/09 08:36:49;;;;;;;63.05;33.22;;;4.50;99.90;;;;;;4996237;28;20250;-76
2021/03/09 08:39:16;;;;;;;58.83;31.10;;;4.60;99.90;;;;;;5009354;28;20549;-74
2021/03/09 08:41:44;;;;;;;60.42;32.33;;;4.50;99.90;;;;;;5015289;28;20236;-76
2021/03/09 08:44:16;;;;;;;59.08;33.45;;;4.30;99.90;;;;;;5009900;28;20201;-75
2021/03/09 08:47:05;;;;;;;59.15;30.15;;;4.30;99.90;;;;;;5048067;28;20204;-76
2021/03/09 08:49:34;;;;;;;53.05;31.05;;;4.40;99.90;;;;;;4996673;28;20271;-75
2021/03/09 08:52:08;;;;;;;50.72;29.08;;;4.40;99.90;;;;;;5048503;28;20338;-76
2021/03/09 08:54:41;;;;;;;49.08;28.88;;;4.50;99.90;;;;;;4999325;28;20278;-76
2021/03/09 08:57:23;;;;;;;52.33;30.45;;;4.30;99.90;;;;;;5027924;28;20189;-76
2021/03/09 08:59:53;;;;;;;47.40;27.75;;;4.30;99.90;;;;;;5029293;28;20203;-76
2021/03/09 09:02:20;;;;;;;49.05;28.25;;;4.30;99.90;;;;;;5003597;28;20223;-73
2021/03/09 09:05:01;;;;;;;50.03;31.55;;;4.50;99.90;;;;;;4997442;28;20720;-76
2021/03/09 09:07:34;;;;;;;50.85;29.55;;;4.40;99.90;;;;;;5018322;28;20210;-76
2021/03/09 09:10:06;;;;;;;58.47;30.02;;;4.30;99.90;;;;;;4983318;28;20201;-76
2021/03/09 09:12:37;;;;;;;53.80;31.08;;;4.40;99.90;;;;;;5026347;28;20200;-76
2021/03/09 09:15:09;;;;;;;49.72;27.65;;;4.40;99.90;;;;;;5048733;28;20220;-76
2021/03/09 09:17:38;;;;;;;53.35;32.03;;;4.40;99.90;;;;;;5024952;28;20320;-75
2021/03/09 09:20:14;;;;;;;59.05;33.42;;;4.40;99.90;;;;;;5031119;28;20193;-76
2021/03/09 09:22:41;;;;;;;60.70;32.88;;;4.40;99.90;;;;;;5023089;28;20291;-76
2021/03/09 09:25:10;;;;;;;56.95;31.02;;;4.60;99.90;;;;;;5015683;28;20185;-76
2021/03/09 09:28:08;;;;;;;52.00;30.63;;;4.50;99.90;;;;;;5010775;28;20204;-75
2021/03/09 09:30:41;;;;;;;56.30;31.67;;;4.40;99.90;;;;;;5000486;28;20208;-76
2021/03/09 09:33:10;;;;;;;57.03;32.42;;;4.40;99.90;;;;;;5029257;28;20197;-76
2021/03/09 09:35:37;;;;;;;54.10;29.92;;;4.60;99.90;;;;;;5022898;28;20205;-74
2021/03/09 09:38:11;;;;;;;58.97;32.53;;;4.40;99.90;;;;;;5015672;28;20192;-75
2021/03/09 09:40:56;;;;;;;49.90;30.05;;;4.40;99.90;;;;;;5021492;28;20193;-76
2021/03/09 09:43:27;;;;;;;57.45;31.02;;;4.40;99.90;;;;;;5022990;28;20223;-76
2021/03/09 09:46:05;;;;;;;62.40;34.17;;;4.50;99.90;;;;;;5030996;28;20580;-76
2021/03/09 09:48:38;;;;;;;58.08;31.33;;;4.50;99.90;;;;;;5017377;28;20653;-75
2021/03/09 09:51:14;;;;;;;55.75;32.70;;;4.50;99.90;;;;;;5017472;28;20204;-76
2021/03/09 09:53:45;;;;;;;61.88;31.73;;;4.60;99.90;;;;;;5009893;28;20208;-75
2021/03/09 09:56:18;;;;;;;59.97;32.50;;;4.60;99.90;;;;;;5051229;28;20275;-76
2021/03/09 09:59:02;;;;;;;55.75;31.85;;;4.60;99.90;;;;;;5014668;28;20249;-75
2021/03/09 10:01:38;;;;;;;55.50;31.77;;;4.60;99.90;;;;;;5013742;28;20243;-75
2021/03/09 10:04:13;;;;;;;59.75;31.67;;;4.60;99.90;;;;;;5049184;28;20219;-76
2021/03/09 10:06:42;;;;;;;59.28;31.83;;;4.60;99.90;;;;;;5016243;28;20204;-76
2021/03/09 10:09:16;;;;;;;55.50;31.65;;;4.70;99.90;;;;;;5006277;28;20666;-73
2021/03/09 10:11:45;;;;;;;65.47;32.70;;;4.70;99.90;;;;;;5006217;28;20594;-76
2021/03/09 10:14:12;;;;;;;55.88;29.90;;;4.70;99.90;;;;;;5016934;28;20593;-76
2021/03/09 10:16:40;;;;;;;59.67;31.17;;;4.70;99.90;;;;;;4999476;28;20197;-75
2021/03/09 10:19:18;;;;;;;58.55;32.85;;;4.70;99.90;;;;;;5033483;28;20198;-75
2021/03/09 10:21:46;;;;;;;55.63;32.60;;;4.80;99.90;;;;;;5017219;28;20217;-76
2021/03/09 10:24:28;;;;;;;57.10;33.25;;;4.80;99.90;;;;;;5032957;28;20211;-76
2021/03/09 10:26:55;;;;;;;64.60;35.08;;;4.90;99.90;;;;;;5013862;28;20217;-76
2021/03/09 10:29:29;;;;;;;66.18;34.78;;;4.90;99.90;;;;;;5020628;28;20563;-76
2021/03/09 10:32:00;;;;;;;62.10;33.13;;;4.90;99.90;;;;;;5040574;28;20222;-76
2021/03/09 10:34:41;;;;;;;56.28;32.28;;;5.00;99.90;;;;;;5005286;28;20199;-74
2021/03/09 10:37:17;;;;;;;62.10;33.72;;;5.00;99.90;;;;;;5022102;28;20558;-76
2021/03/09 10:39:54;;;;;;;58.13;31.67;;;5.00;99.90;;;;;;5042245;28;20223;-76
2021/03/09 10:42:43;;;;;;;63.13;36.08;;;5.00;99.90;;;;;;5024558;28;20205;-76
2021/03/09 10:45:26;;;;;;;62.15;34.97;;;5.00;99.90;;;;;;5012946;28;20188;-75
2021/03/09 10:47:55;;;;;;;61.50;35.47;;;5.10;99.90;;;;;;5024759;28;20668;-76
2021/03/09 10:50:24;;;;;;;66.43;36.33;;;5.10;99.90;;;;;;5021621;28;20200;-76
2021/03/09 10:52:51;;;;;;;65.20;35.13;;;5.20;99.90;;;;;;5013862;28;20212;-76
2021/03/09 10:55:17;;;;;;;62.95;34.28;;;5.20;99.90;;;;;;5028631;28;20192;-76
2021/03/09 10:57:47;;;;;;;60.75;34.65;;;5.10;99.90;;;;;;5030677;28;20295;-76
2021/03/09 11:00:18;;;;;;;55.35;32.08;;;5.20;99.90;;;;;;5008469;28;21100;-75
2021/03/09 11:02:47;;;;;;;63.80;37.13;;;5.20;99.90;;;;;;5018698;28;20580;-76
2021/03/09 11:05:14;;;;;;;70.43;37.50;;;5.20;99.90;;;;;;5015531;28;20694;-74
2021/03/09 11:07:41;;;;;;;62.17;34.42;;;5.30;99.90;;;;;;5005653;28;20239;-76
2021/03/09 11:10:13;;;;;;;60.78;32.92;;;5.30;99.90;;;;;;5045698;28;20189;-76
2021/03/09 11:12:40;;;;;;;64.68;34.97;;;5.40;99.90;;;;;;5028933;28;20346;-76
2021/03/09 11:15:08;;;;;;;65.38;34.65;;;5.40;99.90;;;;;;5023968;28;20627;-76
2021/03/09 11:17:34;;;;;;;60.22;36.95;;;5.50;99.90;;;;;;5020332;28;20192;-76
2021/03/09 11:20:03;;;;;;;58.60;34.70;;;5.60;99.90;;;;;;5013312;28;20177;-75
2021/03/09 11:22:30;;;;;;;57.20;32.67;;;5.70;99.90;;;;;;5015875;28;20720;-76
2021/03/09 11:24:56;;;;;;;63.78;34.30;;;5.80;99.90;;;;;;5042724;28;20249;-75
2021/03/09 11:27:25;;;;;;;69.40;41.00;;;5.80;99.90;;;;;;5008693;28;20238;-75
2021/03/09 11:29:55;;;;;;;64.85;38.15;;;5.80;99.90;;;;;;5027100;28;20287;-76
2021/03/09 11:32:24;;;;;;;90.95;52.97;;;5.90;99.90;;;;;;5023932;28;20212;-75
2021/03/09 11:34:50;;;;;;;66.13;35.15;;;5.90;99.90;;;;;;5047595;28;20188;-75
2021/03/09 11:37:16;;;;;;;64.72;39.00;;;5.90;99.90;;;;;;5038289;28;20271;-76
2021/03/09 11:39:43;;;;;;;63.28;38.60;;;5.90;99.90;;;;;;5051710;28;20236;-75
2021/03/09 11:42:09;;;;;;;58.65;34.35;;;6.00;99.90;;;;;;5032164;28;20214;-76
2021/03/09 11:44:35;;;;;;;58.95;33.20;;;6.00;99.90;;;;;;5010228;28;20188;-76
2021/03/09 11:47:04;;;;;;;58.75;33.60;;;6.10;99.90;;;;;;5045906;28;20205;-78
2021/03/09 11:49:32;;;;;;;62.50;34.20;;;6.10;99.90;;;;;;5013428;28;20212;-76
2021/03/09 11:51:59;;;;;;;57.13;33.67;;;6.20;99.90;;;;;;5017704;28;20200;-77
2021/03/09 11:54:25;;;;;;;65.03;34.15;;;6.20;99.90;;;;;;5029489;28;20274;-78
2021/03/09 11:56:51;;;;;;;62.00;32.60;;;6.30;99.90;;;;;;5025979;28;20603;-77
2021/03/09 11:59:17;;;;;;;64.40;35.17;;;6.30;99.90;;;;;;5004981;28;20185;-74
2021/03/09 12:01:44;;;;;;;64.47;33.08;;;6.30;99.90;;;;;;5017314;28;20241;-76
2021/03/09 12:04:10;;;;;;;62.40;33.38;;;6.30;99.90;;;;;;5007220;28;20228;-77
2021/03/09 12:06:36;;;;;;;60.28;33.78;;;6.40;99.90;;;;;;5023506;28;20211;-77
2021/03/09 12:09:06;;;;;;;62.75;33.28;;;6.50;99.90;;;;;;5030115;28;20191;-76
2021/03/09 12:11:32;;;;;;;65.65;32.72;;;6.60;99.90;;;;;;5015513;28;20230;-76
2021/03/09 12:13:58;;;;;;;61.30;32.83;;;6.70;99.90;;;;;;5030312;28;20435;-77
2021/03/09 12:16:25;;;;;;;59.05;31.90;;;6.80;99.90;;;;;;5008244;28;20196;-77
2021/03/09 12:18:51;;;;;;;55.00;31.05;;;7.00;99.90;;;;;;5047792;28;20192;-77
2021/03/09 12:21:17;;;;;;;53.95;31.63;;;7.00;99.90;;;;;;5007484;28;20255;-77
2021/03/09 12:23:43;;;;;;;51.60;32.13;;;7.10;99.90;;;;;;5017738;28;20285;-77
2021/03/09 12:26:11;;;;;;;60.95;35.78;;;7.10;99.90;;;;;;5021491;28;20238;-77
2021/03/09 12:28:38;;;;;;;59.37;35.30;;;7.10;99.90;;;;;;5005696;28;20719;-77
2021/03/09 12:31:04;;;;;;;59.20;33.70;;;7.10;99.90;;;;;;5015059;28;20549;-76
2021/03/09 12:33:31;;;;;;;51.55;29.67;;;7.20;99.90;;;;;;5048707;28;20429;-76
2021/03/09 12:35:58;;;;;;;52.53;29.38;;;7.20;99.90;;;;;;5039749;28;20720;-73
2021/03/09 12:38:24;;;;;;;55.03;29.63;;;7.20;99.90;;;;;;5029457;28;20244;-76
2021/03/09 12:40:51;;;;;;;52.22;28.42;;;7.20;99.90;;;;;;5016557;28;20209;-75
2021/03/09 12:43:17;;;;;;;51.33;29.15;;;7.20;99.90;;;;;;5048672;28;20608;-75
2021/03/09 12:45:43;;;;;;;58.30;32.67;;;7.20;99.90;;;;;;5038671;28;20287;-75
2021/03/09 12:48:11;;;;;;;50.83;32.20;;;7.20;99.90;;;;;;5045485;28;20213;-76
2021/03/09 12:50:37;;;;;;;51.00;32.08;;;7.20;99.90;;;;;;5016330;28;20199;-76